Chatfield, TX (75105)

1:54 AM CST on December 11, 2016 (GMT -0600)
Lively/Styx | | Change Station

Elev 410 ft 32.38 °N, 96.31 °W | Updated 6 seconds ago

Overcast
Overcast
49.5 °F
Feels Like 48 °F
N
4.2
Wind Variable Wind from SW

Today
High -- | Low -- °F
--% Chance of Precip.
Yesterday
High -- | Low -- °F
Precip. -- in
Pressure 30.15 in
Visibility 10.0 miles
Clouds Overcast 2100 ft
Windchill 48 °F
Dew Point 38 °F
Humidity 65%
Rainfall 0.00 in
Snow Depth Not available.
7:16 AM 5:21 PM
Waxing Gibbous, 90% visible
METAR KCRS 110653Z AUTO 17010KT 10SM OVC021 10/02 A3015 RMK AO2 SLP209 T01000017
Pressure 30.15 in
Visibility 10.0 miles
Clouds Overcast 2100 ft
Windchill 48 °F
Dew Point 38 °F
Humidity 65%
Rainfall 0.00 in
Snow Depth Not available.
7:16 AM 5:21 PM
Waxing Gibbous, 90% visible
METAR KCRS 110653Z AUTO 17010KT 10SM OVC021 10/02 A3015 RMK AO2 SLP209 T01000017

10-Day Weather Forecast

Almanac

Astronomy

Dec. 11, 2016 Rise Set
Actual Time
Civil Twilight
Nautical Twilight
Astronomical Twilight
Moon
Length of Visible Light
Length of Day
Tomorrow will be .
, % of the Moon is Illuminated

Today's Extremes

State Highs State Lows

Community

WunderPhotos

Upload Photos

1,956,707 photos uploaded!

WunderBlog® & News

Nearby

Air Quality

  Air Quality AQ Index Pollutant
Not available.

Snow Depth

Station Depth Elevation

Earthquake Activity

City Distance Mag. Time & Date
Minimum magnitude displayed is 2.5.

Coastal Water Temperatures

Place Temperature

Stations

Nearby Weather Stations

Station Location Temp. Windchill Dew Point Humidity Wind Precip. Elev Updated Type
                   

Watches & Warnings

There are currently no watches in effect.